sensor_id;sensor_type;location;lat;lon;timestamp;P1;durP1;ratioP1;P2;durP2;ratioP2
2476;SDS011;1249;51.270;6.756;2022-09-21T00:01:51;64.93;;;61.07;;
2476;SDS011;1249;51.270;6.756;2022-09-21T00:04:17;67.80;;;63.90;;
2476;SDS011;1249;51.270;6.756;2022-09-21T00:06:44;79.43;;;75.33;;
2476;SDS011;1249;51.270;6.756;2022-09-21T00:09:11;72.77;;;68.63;;
2476;SDS011;1249;51.270;6.756;2022-09-21T00:11:38;67.77;;;64.17;;
2476;SDS011;1249;51.270;6.756;2022-09-21T00:14:06;66.57;;;63.37;;
2476;SDS011;1249;51.270;6.756;2022-09-21T00:16:37;79.40;;;75.20;;
2476;SDS011;1249;51.270;6.756;2022-09-21T00:19:05;80.40;;;76.00;;
2476;SDS011;1249;51.270;6.756;2022-09-21T00:21:31;62.80;;;59.37;;
2476;SDS011;1249;51.270;6.756;2022-09-21T00:23:59;79.13;;;75.33;;
2476;SDS011;1249;51.270;6.756;2022-09-21T00:26:27;84.17;;;79.20;;
2476;SDS011;1249;51.270;6.756;2022-09-21T00:28:54;70.47;;;66.40;;
2476;SDS011;1249;51.270;6.756;2022-09-21T00:31:22;89.23;;;84.47;;
2476;SDS011;1249;51.270;6.756;2022-09-21T00:33:51;71.97;;;67.97;;
2476;SDS011;1249;51.270;6.756;2022-09-21T00:36:19;70.67;;;66.70;;
2476;SDS011;1249;51.270;6.756;2022-09-21T00:38:48;77.47;;;73.30;;
2476;SDS011;1249;51.270;6.756;2022-09-21T00:41:15;78.13;;;73.87;;
2476;SDS011;1249;51.270;6.756;2022-09-21T00:43:44;72.63;;;68.60;;
2476;SDS011;1249;51.270;6.756;2022-09-21T00:46:13;74.00;;;70.27;;
2476;SDS011;1249;51.270;6.756;2022-09-21T00:48:47;73.97;;;70.33;;
2476;SDS011;1249;51.270;6.756;2022-09-21T00:51:15;80.30;;;76.40;;
2476;SDS011;1249;51.270;6.756;2022-09-21T00:53:42;78.53;;;74.43;;
2476;SDS011;1249;51.270;6.756;2022-09-21T00:56:09;67.57;;;63.97;;
2476;SDS011;1249;51.270;6.756;2022-09-21T00:58:39;99.60;;;94.60;;
2476;SDS011;1249;51.270;6.756;2022-09-21T01:01:11;84.83;;;80.33;;
2476;SDS011;1249;51.270;6.756;2022-09-21T01:03:42;77.87;;;73.97;;
2476;SDS011;1249;51.270;6.756;2022-09-21T01:06:09;57.67;;;54.37;;
2476;SDS011;1249;51.270;6.756;2022-09-21T01:08:38;80.37;;;75.40;;
2476;SDS011;1249;51.270;6.756;2022-09-21T01:11:20;71.47;;;68.30;;
2476;SDS011;1249;51.270;6.756;2022-09-21T01:16:59;78.43;;;74.27;;
2476;SDS011;1249;51.270;6.756;2022-09-21T01:19:38;57.97;;;55.00;;
2476;SDS011;1249;51.270;6.756;2022-09-21T01:22:35;73.63;;;68.67;;
2476;SDS011;1249;51.270;6.756;2022-09-21T01:25:16;71.93;;;67.83;;
2476;SDS011;1249;51.270;6.756;2022-09-21T01:27:53;71.47;;;67.33;;
2476;SDS011;1249;51.270;6.756;2022-09-21T01:30:30;102.63;;;97.70;;
2476;SDS011;1249;51.270;6.756;2022-09-21T01:33:02;74.30;;;70.07;;
2476;SDS011;1249;51.270;6.756;2022-09-21T01:35:34;81.20;;;76.73;;
2476;SDS011;1249;51.270;6.756;2022-09-21T01:38:06;73.33;;;69.00;;
2476;SDS011;1249;51.270;6.756;2022-09-21T01:40:37;85.73;;;81.37;;
2476;SDS011;1249;51.270;6.756;2022-09-21T01:43:08;81.33;;;77.30;;
2476;SDS011;1249;51.270;6.756;2022-09-21T01:45:41;66.07;;;62.30;;
2476;SDS011;1249;51.270;6.756;2022-09-21T01:48:12;69.67;;;65.87;;
2476;SDS011;1249;51.270;6.756;2022-09-21T01:50:40;69.40;;;65.67;;
2476;SDS011;1249;51.270;6.756;2022-09-21T01:53:11;91.23;;;86.40;;
2476;SDS011;1249;51.270;6.756;2022-09-21T01:55:44;73.80;;;70.13;;
2476;SDS011;1249;51.270;6.756;2022-09-21T01:58:15;64.30;;;61.10;;
2476;SDS011;1249;51.270;6.756;2022-09-21T02:00:49;75.30;;;71.33;;
2476;SDS011;1249;51.270;6.756;2022-09-21T02:03:20;77.50;;;73.43;;
2476;SDS011;1249;51.270;6.756;2022-09-21T02:05:52;87.90;;;82.83;;
2476;SDS011;1249;51.270;6.756;2022-09-21T02:08:18;78.30;;;74.30;;
2476;SDS011;1249;51.270;6.756;2022-09-21T02:10:46;78.33;;;74.37;;
2476;SDS011;1249;51.270;6.756;2022-09-21T02:13:15;74.30;;;70.00;;
2476;SDS011;1249;51.270;6.756;2022-09-21T02:15:49;73.13;;;69.53;;
2476;SDS011;1249;51.270;6.756;2022-09-21T02:18:32;85.90;;;81.07;;
2476;SDS011;1249;51.270;6.756;2022-09-21T02:21:06;81.03;;;76.27;;
2476;SDS011;1249;51.270;6.756;2022-09-21T02:23:41;96.20;;;91.30;;
2476;SDS011;1249;51.270;6.756;2022-09-21T02:26:13;83.37;;;79.17;;
2476;SDS011;1249;51.270;6.756;2022-09-21T02:28:46;91.83;;;87.20;;
2476;SDS011;1249;51.270;6.756;2022-09-21T02:31:21;79.67;;;75.40;;
2476;SDS011;1249;51.270;6.756;2022-09-21T02:33:57;83.43;;;79.37;;
2476;SDS011;1249;51.270;6.756;2022-09-21T02:36:30;85.23;;;80.33;;
2476;SDS011;1249;51.270;6.756;2022-09-21T02:39:03;88.60;;;83.83;;
2476;SDS011;1249;51.270;6.756;2022-09-21T02:41:33;100.57;;;94.70;;
2476;SDS011;1249;51.270;6.756;2022-09-21T02:44:06;82.63;;;78.33;;
2476;SDS011;1249;51.270;6.756;2022-09-21T02:46:42;94.20;;;89.47;;
2476;SDS011;1249;51.270;6.756;2022-09-21T02:49:15;91.30;;;86.07;;
2476;SDS011;1249;51.270;6.756;2022-09-21T02:51:46;87.83;;;82.90;;
2476;SDS011;1249;51.270;6.756;2022-09-21T02:54:16;84.07;;;79.23;;
2476;SDS011;1249;51.270;6.756;2022-09-21T02:56:46;86.77;;;81.57;;
2476;SDS011;1249;51.270;6.756;2022-09-21T02:59:15;100.63;;;95.03;;
2476;SDS011;1249;51.270;6.756;2022-09-21T03:01:43;70.93;;;66.40;;
2476;SDS011;1249;51.270;6.756;2022-09-21T03:04:10;86.27;;;81.73;;
2476;SDS011;1249;51.270;6.756;2022-09-21T03:06:37;85.17;;;80.50;;
2476;SDS011;1249;51.270;6.756;2022-09-21T03:09:05;105.90;;;100.70;;
2476;SDS011;1249;51.270;6.756;2022-09-21T03:11:32;78.33;;;73.57;;
2476;SDS011;1249;51.270;6.756;2022-09-21T03:14:00;89.37;;;84.63;;
2476;SDS011;1249;51.270;6.756;2022-09-21T03:16:27;106.97;;;100.67;;
2476;SDS011;1249;51.270;6.756;2022-09-21T03:18:55;84.73;;;79.87;;
2476;SDS011;1249;51.270;6.756;2022-09-21T03:21:22;93.87;;;88.73;;
2476;SDS011;1249;51.270;6.756;2022-09-21T03:23:49;99.33;;;94.13;;
2476;SDS011;1249;51.270;6.756;2022-09-21T03:26:15;80.33;;;76.07;;
2476;SDS011;1249;51.270;6.756;2022-09-21T03:28:46;81.40;;;77.07;;
2476;SDS011;1249;51.270;6.756;2022-09-21T03:31:13;95.43;;;90.50;;
2476;SDS011;1249;51.270;6.756;2022-09-21T03:33:40;98.53;;;93.37;;
2476;SDS011;1249;51.270;6.756;2022-09-21T03:36:08;77.23;;;73.03;;
2476;SDS011;1249;51.270;6.756;2022-09-21T03:38:35;83.67;;;79.00;;
2476;SDS011;1249;51.270;6.756;2022-09-21T03:41:02;112.67;;;106.37;;
2476;SDS011;1249;51.270;6.756;2022-09-21T03:43:29;91.60;;;86.87;;
2476;SDS011;1249;51.270;6.756;2022-09-21T03:45:56;90.77;;;86.30;;
2476;SDS011;1249;51.270;6.756;2022-09-21T03:48:23;77.77;;;73.40;;
2476;SDS011;1249;51.270;6.756;2022-09-21T03:50:50;65.60;;;62.53;;
2476;SDS011;1249;51.270;6.756;2022-09-21T03:53:18;87.97;;;82.73;;
2476;SDS011;1249;51.270;6.756;2022-09-21T03:55:45;86.50;;;81.93;;
2476;SDS011;1249;51.270;6.756;2022-09-21T03:58:12;93.50;;;89.03;;
2476;SDS011;1249;51.270;6.756;2022-09-21T04:00:39;81.57;;;77.37;;
2476;SDS011;1249;51.270;6.756;2022-09-21T04:03:06;95.00;;;89.83;;
2476;SDS011;1249;51.270;6.756;2022-09-21T04:05:33;88.97;;;84.03;;
2476;SDS011;1249;51.270;6.756;2022-09-21T04:08:00;73.93;;;69.83;;
2476;SDS011;1249;51.270;6.756;2022-09-21T04:10:28;83.40;;;79.10;;
2476;SDS011;1249;51.270;6.756;2022-09-21T04:12:57;73.03;;;69.33;;
2476;SDS011;1249;51.270;6.756;2022-09-21T04:15:26;86.80;;;82.00;;
2476;SDS011;1249;51.270;6.756;2022-09-21T04:17:53;75.83;;;72.03;;
2476;SDS011;1249;51.270;6.756;2022-09-21T04:20:20;90.53;;;84.77;;
2476;SDS011;1249;51.270;6.756;2022-09-21T04:22:47;90.80;;;85.63;;
2476;SDS011;1249;51.270;6.756;2022-09-21T04:25:15;91.07;;;86.77;;
2476;SDS011;1249;51.270;6.756;2022-09-21T04:27:43;88.93;;;84.20;;
2476;SDS011;1249;51.270;6.756;2022-09-21T04:30:10;90.80;;;86.50;;
2476;SDS011;1249;51.270;6.756;2022-09-21T04:32:38;96.13;;;91.13;;
2476;SDS011;1249;51.270;6.756;2022-09-21T04:35:05;93.93;;;89.40;;
2476;SDS011;1249;51.270;6.756;2022-09-21T04:37:33;77.53;;;73.90;;
2476;SDS011;1249;51.270;6.756;2022-09-21T04:40:00;80.40;;;76.43;;
2476;SDS011;1249;51.270;6.756;2022-09-21T04:42:28;91.30;;;86.60;;
2476;SDS011;1249;51.270;6.756;2022-09-21T04:44:56;105.50;;;100.30;;
2476;SDS011;1249;51.270;6.756;2022-09-21T04:47:23;90.13;;;85.67;;
2476;SDS011;1249;51.270;6.756;2022-09-21T04:49:50;80.37;;;76.30;;
2476;SDS011;1249;51.270;6.756;2022-09-21T04:52:17;89.10;;;84.03;;
2476;SDS011;1249;51.270;6.756;2022-09-21T04:54:44;100.17;;;94.67;;
2476;SDS011;1249;51.270;6.756;2022-09-21T04:57:11;98.50;;;93.20;;
2476;SDS011;1249;51.270;6.756;2022-09-21T04:59:38;81.27;;;76.77;;
2476;SDS011;1249;51.270;6.756;2022-09-21T05:02:07;100.87;;;95.70;;
2476;SDS011;1249;51.270;6.756;2022-09-21T05:04:34;82.60;;;77.87;;
2476;SDS011;1249;51.270;6.756;2022-09-21T05:07:01;76.67;;;72.40;;
2476;SDS011;1249;51.270;6.756;2022-09-21T05:09:28;96.13;;;90.60;;
2476;SDS011;1249;51.270;6.756;2022-09-21T05:12:12;82.77;;;77.07;;
2476;SDS011;1249;51.270;6.756;2022-09-21T05:14:39;86.53;;;81.80;;
2476;SDS011;1249;51.270;6.756;2022-09-21T05:17:09;93.30;;;88.43;;
2476;SDS011;1249;51.270;6.756;2022-09-21T05:19:36;91.77;;;86.43;;
2476;SDS011;1249;51.270;6.756;2022-09-21T05:22:03;91.67;;;86.60;;
2476;SDS011;1249;51.270;6.756;2022-09-21T05:24:30;86.23;;;81.30;;
2476;SDS011;1249;51.270;6.756;2022-09-21T05:26:56;90.60;;;85.60;;
2476;SDS011;1249;51.270;6.756;2022-09-21T05:29:23;103.27;;;97.53;;
2476;SDS011;1249;51.270;6.756;2022-09-21T05:31:51;90.33;;;85.37;;
2476;SDS011;1249;51.270;6.756;2022-09-21T05:34:34;97.10;;;91.47;;
2476;SDS011;1249;51.270;6.756;2022-09-21T05:37:09;97.40;;;91.87;;
2476;SDS011;1249;51.270;6.756;2022-09-21T05:39:42;75.53;;;71.17;;
2476;SDS011;1249;51.270;6.756;2022-09-21T05:42:10;65.00;;;61.83;;
2476;SDS011;1249;51.270;6.756;2022-09-21T05:44:38;84.20;;;79.03;;
2476;SDS011;1249;51.270;6.756;2022-09-21T05:47:06;88.30;;;83.97;;
2476;SDS011;1249;51.270;6.756;2022-09-21T05:49:47;82.47;;;78.07;;
2476;SDS011;1249;51.270;6.756;2022-09-21T05:52:20;86.45;;;81.65;;
2476;SDS011;1249;51.270;6.756;2022-09-21T05:54:57;70.67;;;66.93;;
2476;SDS011;1249;51.270;6.756;2022-09-21T05:57:32;106.03;;;100.27;;
2476;SDS011;1249;51.270;6.756;2022-09-21T06:00:08;86.77;;;81.83;;
2476;SDS011;1249;51.270;6.756;2022-09-21T06:02:48;94.90;;;89.60;;
2476;SDS011;1249;51.270;6.756;2022-09-21T06:05:27;70.10;;;66.17;;
2476;SDS011;1249;51.270;6.756;2022-09-21T06:07:54;80.03;;;75.43;;
2476;SDS011;1249;51.270;6.756;2022-09-21T06:10:23;106.07;;;100.77;;
2476;SDS011;1249;51.270;6.756;2022-09-21T06:12:53;82.57;;;78.53;;
2476;SDS011;1249;51.270;6.756;2022-09-21T06:15:25;83.17;;;78.57;;
2476;SDS011;1249;51.270;6.756;2022-09-21T06:17:56;81.70;;;76.60;;
2476;SDS011;1249;51.270;6.756;2022-09-21T06:20:27;92.40;;;87.17;;
2476;SDS011;1249;51.270;6.756;2022-09-21T06:22:58;83.73;;;78.53;;
2476;SDS011;1249;51.270;6.756;2022-09-21T06:25:27;90.27;;;85.33;;
2476;SDS011;1249;51.270;6.756;2022-09-21T06:27:54;85.20;;;80.53;;
2476;SDS011;1249;51.270;6.756;2022-09-21T06:30:26;91.23;;;86.30;;
2476;SDS011;1249;51.270;6.756;2022-09-21T06:32:53;93.93;;;89.40;;
2476;SDS011;1249;51.270;6.756;2022-09-21T06:35:24;78.53;;;74.63;;
2476;SDS011;1249;51.270;6.756;2022-09-21T06:37:59;82.03;;;77.67;;
2476;SDS011;1249;51.270;6.756;2022-09-21T06:40:26;69.37;;;65.40;;
2476;SDS011;1249;51.270;6.756;2022-09-21T06:42:54;69.63;;;66.10;;
2476;SDS011;1249;51.270;6.756;2022-09-21T06:45:22;87.67;;;82.93;;
2476;SDS011;1249;51.270;6.756;2022-09-21T06:47:49;83.97;;;79.97;;
2476;SDS011;1249;51.270;6.756;2022-09-21T06:50:16;78.37;;;74.60;;
2476;SDS011;1249;51.270;6.756;2022-09-21T06:52:44;62.20;;;58.73;;
2476;SDS011;1249;51.270;6.756;2022-09-21T06:55:11;84.77;;;80.70;;
2476;SDS011;1249;51.270;6.756;2022-09-21T06:57:38;77.30;;;73.20;;
2476;SDS011;1249;51.270;6.756;2022-09-21T07:00:06;81.43;;;77.00;;
2476;SDS011;1249;51.270;6.756;2022-09-21T07:02:34;75.17;;;70.50;;
2476;SDS011;1249;51.270;6.756;2022-09-21T07:05:00;70.13;;;66.27;;
2476;SDS011;1249;51.270;6.756;2022-09-21T07:07:27;58.63;;;55.43;;
2476;SDS011;1249;51.270;6.756;2022-09-21T07:09:57;93.10;;;88.83;;
2476;SDS011;1249;51.270;6.756;2022-09-21T07:12:25;58.57;;;55.13;;
2476;SDS011;1249;51.270;6.756;2022-09-21T07:14:53;81.17;;;76.73;;
2476;SDS011;1249;51.270;6.756;2022-09-21T07:17:19;87.73;;;83.03;;
2476;SDS011;1249;51.270;6.756;2022-09-21T07:19:46;83.40;;;78.97;;
2476;SDS011;1249;51.270;6.756;2022-09-21T07:22:13;91.70;;;87.23;;
2476;SDS011;1249;51.270;6.756;2022-09-21T07:24:40;80.37;;;76.23;;
2476;SDS011;1249;51.270;6.756;2022-09-21T07:27:08;61.97;;;58.87;;
2476;SDS011;1249;51.270;6.756;2022-09-21T07:29:35;71.77;;;68.30;;
2476;SDS011;1249;51.270;6.756;2022-09-21T07:32:02;90.10;;;84.83;;
2476;SDS011;1249;51.270;6.756;2022-09-21T07:34:33;76.77;;;72.87;;
2476;SDS011;1249;51.270;6.756;2022-09-21T07:37:00;86.70;;;82.27;;
2476;SDS011;1249;51.270;6.756;2022-09-21T07:39:27;93.67;;;89.17;;
2476;SDS011;1249;51.270;6.756;2022-09-21T07:41:54;64.27;;;60.63;;
2476;SDS011;1249;51.270;6.756;2022-09-21T07:44:23;64.60;;;61.07;;
2476;SDS011;1249;51.270;6.756;2022-09-21T07:46:50;73.70;;;70.13;;
2476;SDS011;1249;51.270;6.756;2022-09-21T07:49:17;76.00;;;71.93;;
2476;SDS011;1249;51.270;6.756;2022-09-21T07:51:44;85.63;;;80.43;;
2476;SDS011;1249;51.270;6.756;2022-09-21T07:54:11;85.17;;;80.63;;
2476;SDS011;1249;51.270;6.756;2022-09-21T07:56:39;90.20;;;85.60;;
2476;SDS011;1249;51.270;6.756;2022-09-21T07:59:28;70.80;;;66.33;;
2476;SDS011;1249;51.270;6.756;2022-09-21T08:01:56;73.47;;;69.90;;
2476;SDS011;1249;51.270;6.756;2022-09-21T08:04:24;68.27;;;64.27;;
2476;SDS011;1249;51.270;6.756;2022-09-21T08:06:51;48.63;;;45.83;;
2476;SDS011;1249;51.270;6.756;2022-09-21T08:09:17;81.83;;;77.57;;
2476;SDS011;1249;51.270;6.756;2022-09-21T08:11:44;77.70;;;73.40;;
2476;SDS011;1249;51.270;6.756;2022-09-21T08:14:11;74.10;;;69.63;;
2476;SDS011;1249;51.270;6.756;2022-09-21T08:16:45;69.87;;;66.03;;
2476;SDS011;1249;51.270;6.756;2022-09-21T08:19:12;95.33;;;90.17;;
2476;SDS011;1249;51.270;6.756;2022-09-21T08:21:40;80.63;;;76.30;;
2476;SDS011;1249;51.270;6.756;2022-09-21T08:24:07;60.33;;;57.10;;
2476;SDS011;1249;51.270;6.756;2022-09-21T08:26:34;54.57;;;51.77;;
2476;SDS011;1249;51.270;6.756;2022-09-21T08:29:01;9.73;;;8.70;;
2476;SDS011;1249;51.270;6.756;2022-09-21T08:31:28;5.50;;;4.07;;
2476;SDS011;1249;51.270;6.756;2022-09-21T08:33:57;53.63;;;50.47;;
2476;SDS011;1249;51.270;6.756;2022-09-21T08:36:24;69.73;;;65.63;;
2476;SDS011;1249;51.270;6.756;2022-09-21T08:38:51;34.47;;;32.13;;
2476;SDS011;1249;51.270;6.756;2022-09-21T08:41:21;18.77;;;17.57;;
2476;SDS011;1249;51.270;6.756;2022-09-21T08:43:51;22.00;;;20.57;;
2476;SDS011;1249;51.270;6.756;2022-09-21T08:46:21;12.27;;;11.30;;
2476;SDS011;1249;51.270;6.756;2022-09-21T08:48:52;5.07;;;4.47;;
2476;SDS011;1249;51.270;6.756;2022-09-21T08:51:24;7.50;;;6.47;;
2476;SDS011;1249;51.270;6.756;2022-09-21T08:53:55;7.83;;;5.80;;
2476;SDS011;1249;51.270;6.756;2022-09-21T08:56:25;13.53;;;12.70;;
2476;SDS011;1249;51.270;6.756;2022-09-21T08:58:52;13.33;;;12.17;;
2476;SDS011;1249;51.270;6.756;2022-09-21T09:01:30;19.77;;;18.47;;
2476;SDS011;1249;51.270;6.756;2022-09-21T09:04:23;36.60;;;34.70;;
2476;SDS011;1249;51.270;6.756;2022-09-21T09:07:01;13.63;;;12.57;;
2476;SDS011;1249;51.270;6.756;2022-09-21T09:09:39;20.73;;;19.23;;
2476;SDS011;1249;51.270;6.756;2022-09-21T09:12:21;9.80;;;9.27;;
2476;SDS011;1249;51.270;6.756;2022-09-21T09:15:06;14.87;;;13.83;;
2476;SDS011;1249;51.270;6.756;2022-09-21T09:17:49;10.73;;;9.13;;
2476;SDS011;1249;51.270;6.756;2022-09-21T09:20:22;26.17;;;24.57;;
2476;SDS011;1249;51.270;6.756;2022-09-21T09:22:58;13.90;;;12.83;;
2476;SDS011;1249;51.270;6.756;2022-09-21T09:25:33;19.83;;;18.80;;
2476;SDS011;1249;51.270;6.756;2022-09-21T09:28:05;23.37;;;21.87;;
2476;SDS011;1249;51.270;6.756;2022-09-21T09:30:41;24.53;;;22.80;;
2476;SDS011;1249;51.270;6.756;2022-09-21T09:33:10;24.27;;;22.27;;
2476;SDS011;1249;51.270;6.756;2022-09-21T09:35:43;26.17;;;24.60;;
2476;SDS011;1249;51.270;6.756;2022-09-21T09:38:16;28.43;;;26.60;;
2476;SDS011;1249;51.270;6.756;2022-09-21T09:40:55;30.37;;;28.60;;
2476;SDS011;1249;51.270;6.756;2022-09-21T09:43:36;32.47;;;30.30;;
2476;SDS011;1249;51.270;6.756;2022-09-21T09:46:14;61.43;;;58.10;;
2476;SDS011;1249;51.270;6.756;2022-09-21T09:48:57;45.83;;;43.50;;
2476;SDS011;1249;51.270;6.756;2022-09-21T09:51:33;42.77;;;40.67;;
2476;SDS011;1249;51.270;6.756;2022-09-21T09:54:02;51.13;;;48.30;;
2476;SDS011;1249;51.270;6.756;2022-09-21T09:56:29;53.50;;;50.60;;
2476;SDS011;1249;51.270;6.756;2022-09-21T09:58:57;41.60;;;39.20;;
2476;SDS011;1249;51.270;6.756;2022-09-21T10:01:35;55.77;;;52.63;;
2476;SDS011;1249;51.270;6.756;2022-09-21T10:04:05;59.23;;;56.30;;
2476;SDS011;1249;51.270;6.756;2022-09-21T10:06:33;47.50;;;45.10;;
2476;SDS011;1249;51.270;6.756;2022-09-21T10:09:02;50.27;;;47.53;;
2476;SDS011;1249;51.270;6.756;2022-09-21T10:11:44;52.57;;;49.73;;
2476;SDS011;1249;51.270;6.756;2022-09-21T10:14:13;51.17;;;48.43;;
2476;SDS011;1249;51.270;6.756;2022-09-21T10:16:44;51.33;;;48.73;;
2476;SDS011;1249;51.270;6.756;2022-09-21T10:19:14;57.87;;;54.93;;
2476;SDS011;1249;51.270;6.756;2022-09-21T10:21:44;55.13;;;52.27;;
2476;SDS011;1249;51.270;6.756;2022-09-21T10:24:17;51.50;;;48.63;;
2476;SDS011;1249;51.270;6.756;2022-09-21T10:26:48;40.93;;;38.50;;
2476;SDS011;1249;51.270;6.756;2022-09-21T10:29:21;47.93;;;45.33;;
2476;SDS011;1249;51.270;6.756;2022-09-21T10:31:56;68.73;;;65.10;;
2476;SDS011;1249;51.270;6.756;2022-09-21T10:34:25;60.13;;;57.17;;
2476;SDS011;1249;51.270;6.756;2022-09-21T10:36:54;68.37;;;64.93;;
2476;SDS011;1249;51.270;6.756;2022-09-21T10:39:24;65.73;;;62.13;;
2476;SDS011;1249;51.270;6.756;2022-09-21T10:41:55;63.63;;;60.53;;
2476;SDS011;1249;51.270;6.756;2022-09-21T10:44:26;58.87;;;55.43;;
2476;SDS011;1249;51.270;6.756;2022-09-21T10:46:58;65.83;;;62.53;;
2476;SDS011;1249;51.270;6.756;2022-09-21T10:49:29;57.53;;;54.57;;
2476;SDS011;1249;51.270;6.756;2022-09-21T10:51:56;60.87;;;58.00;;
2476;SDS011;1249;51.270;6.756;2022-09-21T10:54:26;65.40;;;61.83;;
2476;SDS011;1249;51.270;6.756;2022-09-21T10:56:59;43.87;;;41.70;;
2476;SDS011;1249;51.270;6.756;2022-09-21T10:59:27;70.30;;;66.73;;
2476;SDS011;1249;51.270;6.756;2022-09-21T11:01:56;74.83;;;70.93;;
2476;SDS011;1249;51.270;6.756;2022-09-21T11:04:26;65.63;;;62.50;;
2476;SDS011;1249;51.270;6.756;2022-09-21T11:07:08;80.10;;;76.17;;
2476;SDS011;1249;51.270;6.756;2022-09-21T11:09:42;65.57;;;61.50;;
2476;SDS011;1249;51.270;6.756;2022-09-21T11:12:23;69.13;;;65.83;;
2476;SDS011;1249;51.270;6.756;2022-09-21T11:15:00;80.83;;;76.77;;
2476;SDS011;1249;51.270;6.756;2022-09-21T11:17:43;58.53;;;55.60;;
2476;SDS011;1249;51.270;6.756;2022-09-21T11:20:15;72.50;;;68.83;;
2476;SDS011;1249;51.270;6.756;2022-09-21T11:22:50;81.90;;;77.90;;
2476;SDS011;1249;51.270;6.756;2022-09-21T11:25:29;90.67;;;85.53;;
2476;SDS011;1249;51.270;6.756;2022-09-21T11:28:04;64.80;;;60.97;;
2476;SDS011;1249;51.270;6.756;2022-09-21T11:30:43;62.17;;;58.77;;
2476;SDS011;1249;51.270;6.756;2022-09-21T11:33:35;83.43;;;79.43;;
2476;SDS011;1249;51.270;6.756;2022-09-21T11:36:14;70.20;;;66.43;;
2476;SDS011;1249;51.270;6.756;2022-09-21T11:38:53;74.40;;;70.47;;
2476;SDS011;1249;51.270;6.756;2022-09-21T11:41:36;70.50;;;66.60;;
2476;SDS011;1249;51.270;6.756;2022-09-21T11:44:23;67.70;;;64.17;;
2476;SDS011;1249;51.270;6.756;2022-09-21T11:47:02;85.03;;;80.43;;
2476;SDS011;1249;51.270;6.756;2022-09-21T11:49:45;79.97;;;75.90;;
2476;SDS011;1249;51.270;6.756;2022-09-21T11:52:27;64.90;;;61.87;;
2476;SDS011;1249;51.270;6.756;2022-09-21T11:55:09;55.83;;;52.83;;
2476;SDS011;1249;51.270;6.756;2022-09-21T11:57:49;65.27;;;62.20;;
2476;SDS011;1249;51.270;6.756;2022-09-21T12:00:21;77.93;;;74.47;;
2476;SDS011;1249;51.270;6.756;2022-09-21T12:02:57;79.17;;;75.37;;
2476;SDS011;1249;51.270;6.756;2022-09-21T12:05:44;62.27;;;59.13;;
2476;SDS011;1249;51.270;6.756;2022-09-21T12:08:24;77.50;;;73.50;;
2476;SDS011;1249;51.270;6.756;2022-09-21T12:11:21;61.27;;;57.83;;
2476;SDS011;1249;51.270;6.756;2022-09-21T12:13:57;49.87;;;46.77;;
2476;SDS011;1249;51.270;6.756;2022-09-21T12:16:31;67.13;;;63.30;;
2476;SDS011;1249;51.270;6.756;2022-09-21T12:19:05;77.03;;;73.23;;
2476;SDS011;1249;51.270;6.756;2022-09-21T12:21:39;70.60;;;66.60;;
2476;SDS011;1249;51.270;6.756;2022-09-21T12:24:12;85.43;;;81.10;;
2476;SDS011;1249;51.270;6.756;2022-09-21T12:26:42;76.63;;;72.90;;
2476;SDS011;1249;51.270;6.756;2022-09-21T12:29:16;91.40;;;86.83;;
2476;SDS011;1249;51.270;6.756;2022-09-21T12:31:50;71.13;;;67.33;;
2476;SDS011;1249;51.270;6.756;2022-09-21T12:34:25;70.67;;;67.20;;
2476;SDS011;1249;51.270;6.756;2022-09-21T12:36:58;53.73;;;50.53;;
2476;SDS011;1249;51.270;6.756;2022-09-21T12:39:31;65.93;;;62.47;;
2476;SDS011;1249;51.270;6.756;2022-09-21T12:42:06;92.27;;;87.37;;
2476;SDS011;1249;51.270;6.756;2022-09-21T12:44:43;70.53;;;66.93;;
2476;SDS011;1249;51.270;6.756;2022-09-21T12:47:18;67.53;;;64.10;;
2476;SDS011;1249;51.270;6.756;2022-09-21T12:49:48;76.93;;;73.27;;
2476;SDS011;1249;51.270;6.756;2022-09-21T12:52:20;65.43;;;61.83;;
2476;SDS011;1249;51.270;6.756;2022-09-21T12:54:51;79.27;;;75.17;;
2476;SDS011;1249;51.270;6.756;2022-09-21T12:57:27;68.87;;;65.40;;
2476;SDS011;1249;51.270;6.756;2022-09-21T13:00:12;71.70;;;67.47;;
2476;SDS011;1249;51.270;6.756;2022-09-21T13:02:42;84.63;;;80.13;;
2476;SDS011;1249;51.270;6.756;2022-09-21T13:05:16;71.77;;;67.67;;
2476;SDS011;1249;51.270;6.756;2022-09-21T13:07:59;58.70;;;55.50;;
2476;SDS011;1249;51.270;6.756;2022-09-21T13:10:39;71.73;;;67.93;;
2476;SDS011;1249;51.270;6.756;2022-09-21T13:13:15;55.80;;;52.10;;
2476;SDS011;1249;51.270;6.756;2022-09-21T13:15:48;59.03;;;55.80;;
2476;SDS011;1249;51.270;6.756;2022-09-21T13:18:17;63.07;;;60.03;;
2476;SDS011;1249;51.270;6.756;2022-09-21T13:20:48;69.43;;;65.57;;
2476;SDS011;1249;51.270;6.756;2022-09-21T13:23:16;58.77;;;55.63;;
2476;SDS011;1249;51.270;6.756;2022-09-21T13:25:46;62.63;;;59.77;;
2476;SDS011;1249;51.270;6.756;2022-09-21T13:28:23;57.17;;;54.43;;
2476;SDS011;1249;51.270;6.756;2022-09-21T13:34:20;58.40;;;55.33;;
2476;SDS011;1249;51.270;6.756;2022-09-21T13:39:49;50.23;;;47.73;;
2476;SDS011;1249;51.270;6.756;2022-09-21T13:42:43;64.20;;;61.30;;
2476;SDS011;1249;51.270;6.756;2022-09-21T13:48:17;59.20;;;56.13;;
2476;SDS011;1249;51.270;6.756;2022-09-21T13:50:50;54.30;;;51.70;;
2476;SDS011;1249;51.270;6.756;2022-09-21T13:53:22;48.70;;;46.07;;
2476;SDS011;1249;51.270;6.756;2022-09-21T13:55:53;63.20;;;59.60;;
2476;SDS011;1249;51.270;6.756;2022-09-21T13:58:21;46.50;;;44.07;;
2476;SDS011;1249;51.270;6.756;2022-09-21T14:00:51;57.20;;;54.70;;
2476;SDS011;1249;51.270;6.756;2022-09-21T14:03:22;57.27;;;54.03;;
2476;SDS011;1249;51.270;6.756;2022-09-21T14:05:52;52.03;;;49.00;;
2476;SDS011;1249;51.270;6.756;2022-09-21T14:08:25;54.17;;;51.57;;
2476;SDS011;1249;51.270;6.756;2022-09-21T14:10:57;47.90;;;45.43;;
2476;SDS011;1249;51.270;6.756;2022-09-21T14:13:29;48.73;;;46.30;;
2476;SDS011;1249;51.270;6.756;2022-09-21T14:18:51;64.10;;;61.23;;
2476;SDS011;1249;51.270;6.756;2022-09-21T14:21:20;52.87;;;49.93;;
2476;SDS011;1249;51.270;6.756;2022-09-21T14:26:57;85.67;;;81.33;;
2476;SDS011;1249;51.270;6.756;2022-09-21T14:29:30;62.13;;;58.80;;
2476;SDS011;1249;51.270;6.756;2022-09-21T14:32:04;71.50;;;67.07;;
2476;SDS011;1249;51.270;6.756;2022-09-21T14:34:40;75.43;;;71.70;;
2476;SDS011;1249;51.270;6.756;2022-09-21T14:37:12;81.03;;;76.83;;
2476;SDS011;1249;51.270;6.756;2022-09-21T14:39:51;85.53;;;81.03;;
2476;SDS011;1249;51.270;6.756;2022-09-21T14:42:20;64.30;;;61.07;;
2476;SDS011;1249;51.270;6.756;2022-09-21T14:44:52;79.30;;;74.93;;
2476;SDS011;1249;51.270;6.756;2022-09-21T14:47:28;73.67;;;68.70;;
2476;SDS011;1249;51.270;6.756;2022-09-21T14:50:15;101.10;;;96.20;;
2476;SDS011;1249;51.270;6.756;2022-09-21T14:52:53;55.83;;;52.73;;
2476;SDS011;1249;51.270;6.756;2022-09-21T14:55:50;68.90;;;64.93;;
2476;SDS011;1249;51.270;6.756;2022-09-21T14:58:28;77.33;;;72.77;;
2476;SDS011;1249;51.270;6.756;2022-09-21T15:01:33;84.13;;;79.53;;
2476;SDS011;1249;51.270;6.756;2022-09-21T15:04:07;77.00;;;73.07;;
2476;SDS011;1249;51.270;6.756;2022-09-21T15:06:58;79.60;;;75.67;;
2476;SDS011;1249;51.270;6.756;2022-09-21T15:09:59;85.40;;;81.00;;
2476;SDS011;1249;51.270;6.756;2022-09-21T15:12:57;77.63;;;73.50;;
2476;SDS011;1249;51.270;6.756;2022-09-21T15:15:32;76.13;;;72.00;;
2476;SDS011;1249;51.270;6.756;2022-09-21T15:18:11;58.20;;;54.90;;
2476;SDS011;1249;51.270;6.756;2022-09-21T15:20:44;59.40;;;56.47;;
2476;SDS011;1249;51.270;6.756;2022-09-21T15:23:24;69.30;;;65.43;;
2476;SDS011;1249;51.270;6.756;2022-09-21T15:25:55;63.77;;;60.43;;
2476;SDS011;1249;51.270;6.756;2022-09-21T15:28:27;81.27;;;76.80;;
2476;SDS011;1249;51.270;6.756;2022-09-21T15:30:59;64.70;;;61.63;;
2476;SDS011;1249;51.270;6.756;2022-09-21T15:33:26;79.07;;;74.50;;
2476;SDS011;1249;51.270;6.756;2022-09-21T15:35:53;66.67;;;63.23;;